Date,TemperatureHighF,TemperatureAvgF,TemperatureLowF,DewpointHighF,DewpointAvgF,DewpointLowF,HumidityHigh,HumidityAvg,HumidityLow,PressureMaxIn,PressureMinIn,WindSpeedMaxMPH,WindSpeedAvgMPH,GustSpeedMaxMPH,PrecipitationSumIn
2013-7-1,78.1,73.1,70.3,75.2,71.1,68.8,96,93,90,30.15,30.00,6,0,6,0.21
2013-7-2,88.5,75.2,70.9,75.8,71.4,69.4,96,88,64,30.24,30.12,8,0,8,0.04
2013-7-3,91.8,77.0,68.9,76.2,71.0,67.7,96,83,54,30.27,30.21,9,1,9,0.00
2013-7-4,96.3,80.9,70.2,77.4,72.3,68.7,96,78,47,30.30,30.18,11,1,11,0.00
2013-7-5,97.3,81.3,69.8,77.0,72.0,67.6,95,76,41,30.24,30.15,10,1,10,0.00
2013-7-6,96.3,80.6,70.2,78.3,71.8,67.6,95,77,43,30.18,30.06,7,1,7,0.00
2013-7-7,98.1,79.4,68.4,80.7,72.1,66.9,95,81,45,30.12,30.00,9,0,9,0.00
2013-7-8,95.9,79.4,68.9,73.3,69.9,65.9,96,76,41,30.12,30.00,6,1,6,0.29
2013-7-9,90.1,74.5,68.4,75.5,69.8,66.9,95,86,56,30.15,30.09,6,0,6,0.00
2013-7-10,89.6,75.3,70.5,77.7,71.8,68.7,95,89,63,30.12,29.88,10,0,10,0.67
2013-7-11,86.4,74.6,66.0,76.7,69.7,64.1,96,86,58,30.00,29.85,5,0,5,0.21
2013-7-12,86.9,72.2,65.3,66.2,61.7,52.6,95,71,48,30.21,30.00,8,1,8,0.00
2013-7-13,82.4,71.7,64.8,74.3,67.2,55.6,95,86,67,30.36,30.21,6,0,6,0.37
2013-7-14,95.9,79.3,71.4,77.8,72.2,67.9,95,81,47,30.36,30.27,9,0,9,0.00
2013-7-15,97.9,80.3,69.3,77.4,70.8,67.2,96,76,42,30.30,30.18,6,1,6,0.00
2013-7-16,99.0,80.6,67.8,74.1,68.5,65.0,95,71,36,30.24,30.18,8,1,8,0.00
2013-7-17,99.7,81.3,67.6,77.1,70.2,66.2,95,73,39,30.27,30.12,6,0,6,0.00
2013-7-18,100.9,83.0,70.2,78.1,71.8,67.6,95,73,38,30.12,30.03,6,0,6,0.00
2013-7-19,99.3,83.6,71.6,78.9,74.2,70.0,95,76,42,30.03,29.85,12,1,12,0.00
2013-7-20,96.4,80.4,64.9,78.6,72.1,62.6,95,78,44,29.91,29.79,12,1,12,0.00
2013-7-21,94.6,75.4,63.1,69.7,64.4,58.7,94,73,34,30.06,29.91,5,0,5,0.00
2013-7-22,92.8,75.9,63.7,72.5,67.0,62.2,96,77,41,30.06,29.91,3,0,5,0.00
2013-7-23,92.1,75.4,70.3,77.6,71.4,68.8,95,88,57,29.91,29.65,7,0,7,0.50
2013-7-24,88.0,73.7,63.0,73.0,64.8,57.0,96,76,43,30.00,29.68,8,1,8,0.00
2013-7-25,64.0,59.7,56.7,57.9,53.7,46.2,96,81,65,30.12,30.00,8,0,8,0.20
2013-7-26,71.2,64.0,59.0,66.1,61.1,57.6,97,91,74,30.09,30.03,7,1,7,0.62
2013-7-27,88.2,70.9,59.0,71.1,62.6,57.6,97,78,42,30.12,30.06,6,0,6,0.00
2013-7-28,86.0,71.3,61.0,70.3,64.7,59.8,96,82,53,30.09,30.03,5,0,5,0.00
2013-7-29,93.2,73.4,61.7,72.4,66.0,59.8,95,80,43,30.12,30.03,6,0,6,0.00
2013-7-30,85.8,68.6,57.7,62.7,57.4,53.8,94,71,40,30.18,30.12,10,1,10,0.00
2013-7-31,88.9,69.9,56.5,65.0,58.2,54.5,94,71,38,30.21,30.09,6,0,6,0.00